Terminal Aerodrome Forecast
Issued by NWS

Home | Current Version | Previous Version | Text Only | Print | Product List | Glossary On
Versions: 1 2 3 4 5 6 7 8 9 10 11 12
000
FTUS44 KHGX 232321
TAFUTS
TAF
KUTS 232321Z 2400/2424 17006KT P6SM FEW060 SCT250
     FM240200 18003KT P6SM SKC
     FM241600 21003KT P6SM FEW030
     FM241900 16004KT P6SM SCT050=

USA.gov is the U.S. government's official web portal to all federal, state and local government web resources and services.